Ratings

454 records found.
ID Full Namesort descending Model Yacht Name Spinnaker Rating Non-spin. Rating Base Rating Non-spin. Adj. Genoa Spin. Adj. Genoa Non-spin. Adj. Mainsail Adj. Spin Area Adj. Wskr Pole Adj. Mast Adj. Prop. Adj. Misc. Adj. Furling Adj. Certificate Expires Status
15868 Murray, Joe C&C 41 Mk III Avenir 73 95 72 22 2 2 0 0 0 0 0 -1 0 4/30/2022 Published
15523 Museler, William West Indies 36 Mystere 166 174 147 21 6 6 0 13 0 0 -3 0 3 4/30/2022 Published
16028 Nannini, Mark J/120 Salacia 46 63 45 17 1 1 0 0 0 0 0 4/30/2022 Published
16219 NEKA Sailing Figaro 2 Vicitan 58 75 57 17 0 0 1 0 0 0 0 0 0 4/30/2022 Published
15911 Nicholas Pasyanos J/24 Insatiable 174 193 174 19 0 0 0 0 0 0 0 0 0 4/30/2022 Published
15881 Nick Cromwell J/22 Dirt Dog 186 205 186 19 0 0 0 0 0 0 0 0 0 4/30/2022 Published
16024 Noonan, Peter Swan 56 SD CR Defiance 0 20 -9 20 6 6 0 0 0 0 0 0 3 4/30/2022 Published
15491 Normand Goyette C&C 29 MK II RNR 197 218 177 21 8 8 0 0 0 0 6 0 6 4/30/2022 Published
16099 O'Connell, Patricia/Buechner, Matthew J/24 ODR Big 174 193 174 19 0 0 0 0 0 0 0 0 0 4/30/2022 Published
15671 O'Hanley, Ronald Cookson 50 Privateer -76 -59 -75 17 0 0 -1 0 0 0 0 0 0 4/30/2022 Published
16213 Oakcliff Sailing Ker 50 Temptation Oakcliff -42 -57 -39 -18 0 0 0 -3 0 0 0 0 0 4/30/2022 Published
15680 Owen P Harren J/44 Singularity 42 61 30 19 6 6 0 0 0 0 0 0 6 4/30/2022 Published
15825 Pat McFadden Show 42 Relentless 95 110 81 22 7 7 0 7 0 0 -3 0 3 4/30/2022 Published
15508 Pat Tormey Catalina 320 Blue Skies 177 197 156 20 6 6 0 0 0 12 0 3 4/30/2022 Published
16162 Paul Kanev Hinckley sou'wester 51 Momentum 79 89 60 20 6 6 0 10 0 0 0 0 3 4/30/2022 Published
15917 Paul Raterron Albin 85 Cumulus Njorth Star 209 229 195 20 8 8 0 0 0 0 -3 6 3 4/30/2022 Published
15527 Paul Thomas Kenney Pearson 36-2 Gone With The Wind 155 160 120 21 4 4 0 16 0 0 12 0 3 4/30/2022 Published
15891 Pelkey, David R. Etchells 22 ODR Strega 129 141 129 12 0 0 0 0 0 0 0 0 0 4/30/2022 Published
15384 Pete Levesque E-32-2 CUST Dark Star 75 94 72 19 3 3 0 0 4/30/2022 Published
15841 Peter Allstrom Beneteau 35s5 TM Mod Anser 122 133 117 16 -3 -3 0 5 0 0 0 0 3 4/30/2022 Published
15746 Peter Becker J/105 Young American #146 90 108 93 18 0 0 0 0 0 0 0 0 -3 4/30/2022 Published
15623 Peter Friedrichs Catalina 27 Divine 226 248 213 22 1 1 0 0 0 0 12 0 0 4/30/2022 Published
15696 Peter Maloney Sabre 36 Cetacean 136 151 120 22 6 6 0 7 0 0 0 0 3 4/30/2022 Published
16084 Peter McClennen Melges 24 ODR Gamecock 24 99 112 99 13 0 0 0 0 0 0 0 0 0 4/30/2022 Published
15788 Peter McClennen C&C 30 ODR Nyabinghi 42 59 42 17 0 0 0 0 0 0 0 0 0 4/30/2022 Published
15365 Peter McClennen IC37 Gamecock -9 9 -9 18 0 0 0 0 0 0 0 0 0 4/30/2022 Published
15770 Peter Quackenbush Hunter 31 Quackon 176 197 168 21 4 4 0 0 0 0 0 -2 6 4/30/2022 Published
15395 Peter Vessella Saffier 27L SOLO DREAM 126 144 126 18 0 0 0 0 0 0 0 0 4/30/2022 Provisional
15429 Phil Haydon Quest 33S Cepheus 84 104 96 17 0 0 -3 -3 0 -6 0 0 0 4/30/2022 Published
15943 Phil Kinder Pearson Coaster Cover Girl 226 245 225 19 1 1 0 0 0 0 0 0 0 4/30/2022 Published
16245 Philipp Bachmann Shaw 24 Veninde 298 315 291 17 4 4 0 0 0 0 0 3 4/30/2022 Published
15913 PHILIPPE PERUT SUN FAST 35 WARRIOR 110 131 93 21 8 8 0 0 0 0 6 0 3 4/30/2022 Published
15722 Pickering, Donald A. Newport 30-2 Rascal 199 221 186 22 1 1 0 0 0 0 6 0 6 4/30/2022 Published
15473 Pritchard, David E. Graves Constellation Andromeda 187 202 186 15 1 1 0 0 0 0 0 0 0 4/30/2022 Published
15807 Rachelle L Cambria J/29 MH OB Hotshot 112 133 111 21 0 0 1 0 0 0 0 0 0 4/30/2022 Published
15792 Randall Shore C&C 30 ODR Little Big Man 42 59 42 17 0 0 0 0 0 0 0 0 0 4/30/2022 Published
16272 Raymond Renaud Ericson 34-2 Addendum 129 150 111 21 6 6 0 0 0 0 6 0 6 4/30/2022 Published
15454 Resare, David C&C 41 Sans Souci 83 98 72 22 1 1 0 7 0 0 0 0 3 4/30/2022 Published
15407 Rich, Tom Tripp 43 Settler -10 7 -12 15 3 3 1 -2 0 0 0 0 0 4/30/2022 Published
16145 RICHARD BURKE EGAN, JR J/46 WINGS 45 59 39 19 1 1 0 5 0 0 0 0 0 4/30/2022 Published
16181 Richard Feeny Figaro II Hot Socks 64 74 57 17 0 0 0 7 0 0 0 0 0 4/30/2022 Published
16180 Richard Feeny Figaro II Aquarius 64 74 57 17 0 0 0 7 0 0 0 0 0 4/30/2022 Published
16276 Richard Wessner Etchells 22 ODR Columbia 129 141 129 12 0 0 0 0 0 0 0 0 0 4/30/2022 Published
16199 Riggs, Doug/Bill J/105 Rigadoon 93 111 93 18 0 0 0 0 0 0 0 0 0 4/30/2022 Published
15835 Robert Alexander Sunfast 3300 Byte 67 88 63 19 0 0 0 -2 0 0 0 6 0 4/30/2022 Published
15493 Robert B Millard Pearson Triton MH Solitaire 261 278 249 17 1 1 4 0 0 1 3 0 3 4/30/2022 Published
15640 robert bartro Marshall Sanderling Quahog 330 330 321 0 0 0 0 0 0 0 3 6 0 4/30/2022 Published
15969 Robert Bibeault Beneteau Oceanis 381 NO AGENDA 162 182 141 20 6 6 0 0 0 0 12 0 3 4/30/2022 Published
15611 ROBERT BROOKS Elan Impression 434 Endless Summer 113 121 93 19 6 6 0 11 0 0 0 0 3 4/30/2022 Published
15939 robert closter J/24 Island Spirit 174 193 174 19 0 0 0 0 0 0 0 0 0 4/30/2022 Published

Pages